Time;durP1;ratioP1;P1;durP2;ratioP2;P2;SDS_P1;SDS_P2;PMS_P1;PMS_P2;Temp;Humidity;BMP_temperature;BMP_pressure;BME280_temperature;BME280_humidity;BME280_pressure;Samples;Min_cycle;Max_cycle;Signal;HPM_P1;HPM_P2
2023/10/09 00:02:14;;;;;;;12.68;1.35;;;;;;;15.73;100.00;101233.22;5007806;28;20022;-76
2023/10/09 00:04:42;;;;;;;6.47;1.15;;;;;;;15.66;100.00;101247.09;4992367;28;20036;-77
2023/10/09 00:07:08;;;;;;;7.32;0.93;;;;;;;15.18;100.00;101177.50;4992469;28;20030;-75
2023/10/09 00:09:46;;;;;;;9.40;1.33;;;;;;;15.62;100.00;101246.34;4992703;28;20040;-77
2023/10/09 00:12:15;;;;;;;8.00;1.27;;;;;;;15.47;100.00;101193.75;4992571;28;20026;-78
2023/10/09 00:14:47;;;;;;;7.05;1.10;;;;;;;15.49;100.00;101209.94;4993003;28;20060;-76
2023/10/09 00:19:39;;;;;;;7.15;1.33;;;;;;;15.58;100.00;101206.28;4992301;28;20034;-76
2023/10/09 00:22:04;;;;;;;6.50;0.90;;;;;;;15.36;100.00;101208.59;5011453;28;20519;-77
2023/10/09 00:24:33;;;;;;;10.70;1.38;;;;;;;15.48;100.00;101268.94;4996698;28;20030;-77
2023/10/09 00:27:11;;;;;;;9.23;1.02;;;;;;;15.71;100.00;101274.28;4996264;28;20102;-77
2023/10/09 00:29:43;;;;;;;9.23;1.20;;;;;;;15.30;100.00;101238.66;4995444;28;20619;-77
2023/10/09 00:32:19;;;;;;;6.25;1.02;;;;;;;15.13;100.00;101226.28;4996320;28;20550;-75
2023/10/09 00:34:44;;;;;;;9.10;0.98;;;;;;;15.19;100.00;101213.31;4996716;28;20034;-77
2023/10/09 00:37:16;;;;;;;7.25;1.15;;;;;;;15.30;100.00;101254.03;4996147;28;20037;-76
2023/10/09 00:39:48;;;;;;;12.00;1.00;;;;;;;15.34;100.00;101302.59;5009696;28;20029;-77
2023/10/09 00:42:25;;;;;;;3.75;1.13;;;;;;;15.60;100.00;101295.09;4994843;28;20047;-76
2023/10/09 00:44:51;;;;;;;6.18;1.20;;;;;;;15.34;100.00;101302.59;4995433;28;20046;-77
2023/10/09 00:47:20;;;;;;;3.45;0.95;;;;;;;14.91;100.00;101229.47;4996208;28;20061;-76
2023/10/09 00:50:00;;;;;;;10.65;1.15;;;;;;;15.46;100.00;101281.81;4996142;28;20030;-73
2023/10/09 00:52:39;;;;;;;7.75;0.80;;;;;;;15.56;100.00;101300.34;4996164;28;20066;-76
2023/10/09 00:55:13;;;;;;;4.65;0.73;;;;;;;15.45;100.00;101298.06;4995438;28;20046;-74
2023/10/09 00:57:40;;;;;;;4.65;0.98;;;;;;;15.53;100.00;101282.47;4995659;28;20408;-76
2023/10/09 01:00:32;;;;;;;6.22;0.90;;;;;;;15.54;100.00;101290.13;4995604;28;20081;-76
2023/10/09 01:03:01;;;;;;;4.88;0.73;;;;;;;15.58;100.00;101291.72;4995137;28;20039;-75
2023/10/09 01:05:28;;;;;;;6.57;0.90;;;;;;;15.12;100.00;101216.94;4995340;28;20037;-75
2023/10/09 01:07:58;;;;;;;3.72;1.00;;;;;;;15.01;100.00;101251.41;4986862;28;20046;-75
2023/10/09 01:10:26;;;;;;;3.70;0.88;;;;;;;15.22;100.00;101279.00;4977470;28;20031;-75
2023/10/09 01:12:55;;;;;;;4.90;0.90;;;;;;;14.79;100.00;101228.06;4975319;28;20077;-75
2023/10/09 01:15:36;;;;;;;2.88;0.65;;;;;;;14.98;100.00;101264.25;5000687;28;20031;-76
2023/10/09 01:18:02;;;;;;;3.85;0.77;;;;;;;15.24;100.00;101303.72;4995062;28;20034;-75
2023/10/09 01:20:31;;;;;;;4.55;0.88;;;;;;;14.92;100.00;101237.09;4993579;28;20038;-76
2023/10/09 01:23:01;;;;;;;3.63;0.93;;;;;;;14.71;100.00;101205.22;4995275;28;20404;-76
2023/10/09 01:25:41;;;;;;;3.80;0.82;;;;;;;15.24;100.00;101303.72;4994251;28;20061;-76
2023/10/09 01:28:06;;;;;;;3.85;0.85;;;;;;;15.19;100.00;101300.41;4995084;28;20034;-77
2023/10/09 01:30:33;;;;;;;3.13;0.90;;;;;;;14.91;100.00;101262.75;4995048;28;20499;-75
2023/10/09 01:33:11;;;;;;;5.22;0.90;;;;;;;15.49;100.00;101299.66;4993226;28;20048;-78
2023/10/09 01:35:46;;;;;;;3.97;0.73;;;;;;;15.10;100.00;101310.06;4994816;28;20033;-77
2023/10/09 01:38:14;;;;;;;3.45;0.82;;;;;;;14.79;100.00;101269.03;4995510;28;20033;-77
2023/10/09 01:40:40;;;;;;;7.53;0.93;;;;;;;14.75;100.00;101349.34;4995186;28;20060;-77
2023/10/09 01:43:09;;;;;;;2.65;0.73;;;;;;;14.24;100.00;101273.72;5009354;28;20070;-78
2023/10/09 01:45:42;;;;;;;3.72;0.80;;;;;;;14.60;100.00;101347.97;4994899;28;20073;-77
2023/10/09 01:48:08;;;;;;;2.17;0.73;;;;;;;14.55;100.00;101338.72;4993906;28;20136;-78
2023/10/09 01:50:35;;;;;;;4.82;1.05;;;;;;;14.18;100.00;101296.88;4994975;28;20081;-77
2023/10/09 01:53:02;;;;;;;3.25;0.70;;;;;;;14.37;100.00;101351.91;4994156;28;20469;-77
2023/10/09 01:55:34;;;;;;;1.92;0.88;;;;;;;14.09;100.00;101292.78;5009871;28;20054;-80
2023/10/09 02:00:54;;;;;;;1.80;0.88;;;;;;;13.85;100.00;101318.84;4994690;28;20480;-77
2023/10/09 02:03:23;;;;;;;1.73;0.90;;;;;;;14.15;100.00;101381.31;4994949;28;20026;-77
2023/10/09 02:06:03;;;;;;;3.25;0.90;;;;;;;14.00;100.00;101349.25;4994380;28;20397;-77
2023/10/09 02:08:29;;;;;;;3.58;1.08;;;;;;;13.87;100.00;101297.50;4994430;28;20491;-78
2023/10/09 02:10:56;;;;;;;2.63;0.88;;;;;;;14.18;100.00;101364.19;4993485;28;20649;-76
2023/10/09 02:13:29;;;;;;;4.90;1.10;;;;;;;13.75;100.00;101307.97;4993450;28;20041;-76
2023/10/09 02:16:13;;;;;;;4.75;0.90;;;;;;;13.42;100.00;101267.72;4993069;28;20038;-76
2023/10/09 02:18:55;;;;;;;4.03;0.95;;;;;;;14.13;100.00;101398.41;4993890;28;20033;-75
2023/10/09 02:21:39;;;;;;;2.90;0.90;;;;;;;13.93;100.00;101368.09;4985722;28;20027;-75
2023/10/09 02:24:07;;;;;;;2.97;1.08;;;;;;;13.90;100.00;101312.75;4983176;28;20103;-76
2023/10/09 02:29:15;;;;;;;3.92;0.95;;;;;;;13.98;100.00;101327.13;4974390;28;20117;-76
2023/10/09 02:31:44;;;;;;;1.73;1.10;;;;;;;14.21;100.00;101370.97;4997533;28;20034;-76
2023/10/09 02:34:10;;;;;;;3.45;1.00;;;;;;;14.13;100.00;101353.22;4985574;28;20444;-75
2023/10/09 02:36:42;;;;;;;2.63;1.02;;;;;;;14.30;100.00;101417.69;4993918;28;20100;-78
2023/10/09 02:39:22;;;;;;;3.00;0.90;;;;;;;14.11;100.00;101428.28;4993811;28;20026;-78
2023/10/09 02:42:01;;;;;;;3.72;1.10;;;;;;;13.99;100.00;101443.84;4993897;28;20144;-78
2023/10/09 02:44:34;;;;;;;2.95;1.00;;;;;;;13.85;100.00;101442.41;4992612;28;20026;-80
2023/10/09 02:47:05;;;;;;;3.28;1.10;;;;;;;13.78;100.00;101445.09;4994369;28;20034;-78
2023/10/09 02:49:30;;;;;;;4.07;0.80;;;;;;;13.72;100.00;101446.06;4993934;28;20065;-78
2023/10/09 02:51:56;;;;;;;4.65;1.00;;;;;;;13.69;100.00;101466.53;4993813;28;20066;-78
2023/10/09 02:57:07;;;;;;;2.05;0.85;;;;;;;13.71;100.00;101480.16;4993503;28;20397;-76
2023/10/09 02:59:32;;;;;;;3.28;1.02;;;;;;;13.27;100.00;101415.31;4993474;28;20062;-78
2023/10/09 03:02:01;;;;;;;3.17;0.90;;;;;;;13.74;100.00;101472.44;4991773;28;20495;-76
2023/10/09 03:04:31;;;;;;;3.25;1.02;;;;;;;13.64;100.00;101472.59;5002393;28;20049;-75
2023/10/09 03:07:00;;;;;;;3.08;0.98;;;;;;;13.72;100.00;101478.44;5007355;28;20050;-77
2023/10/09 03:09:29;;;;;;;1.75;0.77;;;;;;;13.66;100.00;101486.22;4992758;28;20069;-77
2023/10/09 03:12:11;;;;;;;3.17;1.00;;;;;;;13.41;100.00;101449.97;4993955;28;20037;-76
2023/10/09 03:14:41;;;;;;;2.42;1.15;;;;;;;13.53;100.00;101490.66;4992925;28;20034;-76
2023/10/09 03:17:11;;;;;;;2.85;1.00;;;;;;;13.27;100.00;101449.34;4992442;28;20590;-77
2023/10/09 03:19:39;;;;;;;1.90;0.93;;;;;;;13.58;100.00;101499.13;4993184;28;20125;-76
2023/10/09 03:22:09;;;;;;;1.88;0.98;;;;;;;13.56;100.00;101495.75;4998480;28;20030;-77
2023/10/09 03:24:41;;;;;;;2.20;1.00;;;;;;;13.62;100.00;101500.75;5011348;28;20022;-77
2023/10/09 03:27:07;;;;;;;1.73;0.80;;;;;;;13.11;100.00;101435.13;4992862;28;20053;-75
2023/10/09 03:29:33;;;;;;;2.85;1.00;;;;;;;13.61;100.00;101513.53;4990894;28;20100;-74
2023/10/09 03:32:00;;;;;;;3.20;1.13;;;;;;;13.63;100.00;101509.25;4992066;28;20041;-77
2023/10/09 03:34:25;;;;;;;3.78;1.38;;;;;;;13.05;100.00;101460.75;4993089;28;20034;-77
2023/10/09 03:37:03;;;;;;;4.35;1.27;;;;;;;13.44;100.00;101530.84;4992818;28;20173;-79
2023/10/09 03:39:39;;;;;;;3.70;1.00;;;;;;;13.49;100.00;101540.13;4992763;28;20034;-77
2023/10/09 03:42:11;;;;;;;3.35;1.10;;;;;;;12.87;100.00;101410.78;4988092;28;20037;-78
2023/10/09 03:44:41;;;;;;;4.17;1.77;;;;;;;13.33;100.00;101504.63;4973599;28;20034;-76
2023/10/09 03:47:09;;;;;;;3.13;1.20;;;;;;;13.35;100.00;101531.00;4972405;28;20281;-79
2023/10/09 03:49:39;;;;;;;3.35;1.17;;;;;;;13.45;100.00;101551.25;5023698;28;20030;-76
2023/10/09 03:52:06;;;;;;;3.95;1.05;;;;;;;12.90;100.00;101473.69;4992314;28;20034;-75
2023/10/09 03:54:34;;;;;;;2.60;0.93;;;;;;;13.31;100.00;101545.50;5003954;28;20042;-76
2023/10/09 03:57:00;;;;;;;3.10;1.00;;;;;;;13.32;100.00;101554.84;5014786;28;20484;-78
2023/10/09 03:59:30;;;;;;;4.20;1.08;;;;;;;13.47;100.00;101546.16;5031415;28;20068;-74
2023/10/09 04:01:57;;;;;;;2.67;1.10;;;;;;;13.36;100.00;101540.31;5015925;28;20034;-74
2023/10/09 04:04:24;;;;;;;3.20;1.10;;;;;;;13.34;100.00;101550.56;5007611;28;20049;-76
2023/10/09 04:06:53;;;;;;;2.35;1.10;;;;;;;13.31;100.00;101560.81;4995820;28;20030;-78
2023/10/09 04:14:36;;;;;;;1.98;1.15;;;;;;;13.21;100.00;101533.72;4995515;28;20042;-73
2023/10/09 04:17:05;;;;;;;1.83;1.00;;;;;;;12.96;100.00;101455.72;4993695;28;20428;-74
2023/10/09 04:19:38;;;;;;;4.30;1.20;;;;;;;13.35;100.00;101548.88;5011855;28;20048;-75
2023/10/09 04:22:07;;;;;;;3.10;1.30;;;;;;;13.30;100.00;101550.63;5015472;28;20018;-73
2023/10/09 04:24:41;;;;;;;4.68;1.20;;;;;;;13.26;100.00;101561.75;5005680;28;20030;-75
2023/10/09 04:27:08;;;;;;;3.88;1.30;;;;;;;13.28;100.00;101575.34;4995355;28;20034;-76
2023/10/09 04:29:39;;;;;;;2.75;1.40;;;;;;;12.89;100.00;101516.22;4995809;28;20026;-76
2023/10/09 04:32:08;;;;;;;2.80;1.42;;;;;;;12.97;100.00;101534.03;4995083;28;20027;-74
2023/10/09 04:34:48;;;;;;;2.42;1.20;;;;;;;12.55;100.00;101473.28;5011010;28;20038;-76
2023/10/09 04:39:46;;;;;;;3.85;1.60;;;;;;;13.12;100.00;101554.28;4994782;28;20040;-75
2023/10/09 04:47:49;;;;;;;6.32;1.60;;;;;;;13.47;100.00;101605.72;4995835;28;20034;-73
2023/10/09 04:58:00;;;;;;;5.53;2.45;;;;;;;13.46;100.00;101621.94;4993139;28;20041;-76
2023/10/09 05:02:56;;;;;;;5.28;1.90;;;;;;;13.41;100.00;101613.47;4994034;28;20026;-75
2023/10/09 05:16:18;;;;;;;2.63;1.60;;;;;;;13.46;100.00;101644.94;4994478;28;20619;-74
2023/10/09 05:18:55;;;;;;;3.03;1.70;;;;;;;13.49;100.00;101624.44;4994646;28;20026;-75
2023/10/09 05:37:32;;;;;;;4.90;1.42;;;;;;;13.92;100.00;101657.94;4994388;28;20034;-73
2023/10/09 06:04:54;;;;;;;8.48;3.20;;;;;;;13.91;100.00;101753.41;5128948;27;20386;-72
2023/10/09 06:07:23;;;;;;;3.53;1.38;;;;;;;13.96;100.00;101738.00;5129295;27;20055;-72
2023/10/09 06:09:56;;;;;;;8.40;3.00;;;;;;;13.96;100.00;101732.88;5128985;27;20046;-71
2023/10/09 06:12:34;;;;;;;8.57;2.63;;;;;;;13.57;100.00;101712.06;5129082;27;20028;-71
2023/10/09 06:17:52;;;;;;;6.15;1.50;;;;;;;13.83;100.00;101762.88;5120018;27;20524;-72
2023/10/09 06:23:15;;;;;;;8.73;3.50;;;;;;;13.59;100.00;101712.91;5129135;28;20073;-72
2023/10/09 06:25:50;;;;;;;8.40;2.33;;;;;;;13.54;100.00;101726.59;5128672;27;20032;-71
2023/10/09 06:28:18;;;;;;;3.45;1.63;;;;;;;13.54;100.00;101732.56;5127565;27;20078;-72
2023/10/09 06:30:47;;;;;;;4.75;1.70;;;;;;;13.27;100.00;101696.28;5129008;27;20023;-74
2023/10/09 06:33:29;;;;;;;4.80;1.95;;;;;;;13.93;100.00;101797.69;5127084;27;20046;-73
2023/10/09 06:35:55;;;;;;;5.22;1.83;;;;;;;13.66;100.00;101758.00;5127284;27;20455;-73
2023/10/09 06:38:33;;;;;;;5.05;1.45;;;;;;;13.70;100.00;101767.31;5128385;27;20023;-71
2023/10/09 06:41:34;;;;;;;5.38;1.50;;;;;;;13.23;100.00;101705.66;5128801;27;20114;-72
2023/10/09 06:43:53;;;;;;;5.70;1.80;;;;;;;13.38;100.00;101748.94;5127990;27;20548;-72
2023/10/09 06:48:55;;;;;;;5.38;1.38;;;;;;;13.64;100.00;101772.50;5128181;27;20028;-72
2023/10/09 06:59:15;;;;;;;3.53;1.30;;;;;;;13.60;100.00;101745.28;5135347;27;20130;-72
2023/10/09 07:01:44;;;;;;;2.35;1.40;;;;;;;13.91;100.00;101768.75;5134510;27;20031;-71
2023/10/09 07:04:18;;;;;;;4.13;1.20;;;;;;;13.90;100.00;101793.47;5122610;27;20047;-71
2023/10/09 07:17:44;;;;;;;5.40;1.50;;;;;;;14.15;100.00;101844.31;5103550;28;20521;-71
2023/10/09 07:20:13;;;;;;;4.30;1.42;;;;;;;14.00;100.00;101841.97;5114460;28;20055;-71
2023/10/09 07:22:52;;;;;;;3.53;1.27;;;;;;;14.24;100.00;101844.22;5114156;28;20062;-70
2023/10/09 07:28:03;;;;;;;5.90;1.73;;;;;;;14.01;100.00;101782.25;5114065;28;20034;-73
2023/10/09 07:38:19;;;;;;;3.83;1.33;;;;;;;14.23;100.00;101810.09;5113643;27;20020;-71
2023/10/09 07:43:45;;;;;;;4.03;1.73;;;;;;;14.27;100.00;101785.31;5104932;28;20031;-73
2023/10/09 07:46:30;;;;;;;6.32;2.30;;;;;;;14.42;100.00;101814.13;5113662;28;20473;-72
2023/10/09 07:48:57;;;;;;;7.40;2.67;;;;;;;14.35;100.00;101817.66;5112320;28;20489;-72
2023/10/09 07:51:30;;;;;;;4.80;1.92;;;;;;;14.14;100.00;101730.09;5113513;28;20110;-71
2023/10/09 07:53:57;;;;;;;2.50;1.33;;;;;;;14.45;100.00;101800.44;5112231;28;20127;-71
2023/10/09 07:56:30;;;;;;;2.88;1.30;;;;;;;13.93;100.00;101739.75;5113405;28;20036;-73
2023/10/09 07:59:00;;;;;;;4.63;2.33;;;;;;;14.20;100.00;101751.28;5113494;28;20173;-73
2023/10/09 08:03:57;;;;;;;7.30;1.60;;;;;;;14.25;100.00;101744.41;5113255;28;20040;-72
2023/10/09 08:06:44;;;;;;;3.05;1.25;;;;;;;14.07;100.00;101731.88;5113195;28;20032;-73
2023/10/09 08:09:38;;;;;;;2.72;1.10;;;;;;;14.35;100.00;101755.38;5113184;28;20516;-73
2023/10/09 08:12:14;;;;;;;3.47;1.25;;;;;;;14.20;100.00;101733.38;5112347;27;20141;-71
2023/10/09 08:14:42;;;;;;;3.35;1.02;;;;;;;14.18;100.00;101726.63;5113094;28;20023;-72
2023/10/09 08:17:15;;;;;;;8.45;1.50;;;;;;;14.54;100.00;101742.28;5111925;28;20034;-72
2023/10/09 08:19:55;;;;;;;3.70;1.30;;;;;;;15.13;100.00;101764.31;5112827;28;20118;-72
2023/10/09 08:24:55;;;;;;;8.05;1.67;;;;;;;14.89;100.00;101728.91;5112581;27;20054;-72
2023/10/09 08:33:00;;;;;;;4.95;1.30;;;;;;;14.94;100.00;101773.19;5112285;28;20059;-71
2023/10/09 08:35:29;;;;;;;5.45;1.60;;;;;;;14.87;100.00;101781.88;5111126;28;20076;-72
2023/10/09 08:38:08;;;;;;;3.50;1.45;;;;;;;14.95;100.00;101768.94;5112562;28;20157;-73
2023/10/09 08:40:45;;;;;;;4.97;1.42;;;;;;;14.43;100.00;101679.34;5112223;28;20024;-73
2023/10/09 08:43:21;;;;;;;5.38;1.27;;;;;;;15.12;100.00;101766.91;5112712;28;20034;-71
2023/10/09 08:45:53;;;;;;;3.80;1.20;;;;;;;14.78;100.00;101700.91;5112212;28;20035;-71
2023/10/09 08:48:26;;;;;;;3.80;1.42;;;;;;;15.11;100.00;101714.00;5112097;28;20455;-71
2023/10/09 08:50:55;;;;;;;3.35;1.55;;;;;;;15.37;100.00;101729.72;5112086;28;20074;-71
2023/10/09 08:53:21;;;;;;;4.15;1.55;;;;;;;15.29;100.00;101767.47;5111686;28;20038;-71
2023/10/09 08:55:47;;;;;;;3.53;1.38;;;;;;;15.61;100.00;101770.25;5110734;28;20497;-70
2023/10/09 08:58:26;;;;;;;3.95;1.50;;;;;;;15.38;100.00;101772.41;5110520;28;20028;-70
2023/10/09 09:00:55;;;;;;;2.03;1.27;;;;;;;15.21;100.00;101725.75;5111779;28;20474;-71
2023/10/09 09:03:22;;;;;;;5.18;1.42;;;;;;;15.41;100.00;101716.78;5111355;28;20101;-70
2023/10/09 09:05:56;;;;;;;7.45;1.58;;;;;;;15.27;100.00;101716.22;5111434;28;20043;-70
2023/10/09 09:08:26;;;;;;;6.85;1.73;;;;;;;15.84;100.00;101700.56;5111913;28;20115;-71
2023/10/09 09:11:12;;;;;;;2.47;1.30;;;;;;;15.63;100.00;101691.59;5110180;28;20101;-71
2023/10/09 09:13:48;;;;;;;4.88;1.33;;;;;;;15.52;100.00;101755.94;5111908;28;20120;-70
2023/10/09 09:16:18;;;;;;;2.88;1.23;;;;;;;16.21;100.00;101737.34;5109843;28;20090;-72
2023/10/09 09:18:56;;;;;;;5.05;2.40;;;;;;;16.02;100.00;101708.69;5093943;28;20032;-72
2023/10/09 09:21:22;;;;;;;4.88;1.88;;;;;;;16.07;100.00;101678.63;5091680;28;20039;-71
2023/10/09 09:23:57;;;;;;;7.97;3.35;;;;;;;16.69;100.00;101735.38;5090968;28;20409;-71
2023/10/09 09:26:37;;;;;;;4.53;2.00;;;;;;;15.98;100.00;101701.94;5090840;28;20044;-70
2023/10/09 09:29:06;;;;;;;5.43;1.83;;;;;;;16.34;100.00;101690.00;5108316;28;20028;-73
2023/10/09 09:31:37;;;;;;;5.68;1.70;;;;;;;16.35;100.00;101753.28;5090924;28;20086;-73
2023/10/09 09:34:12;;;;;;;9.90;1.90;;;;;;;15.84;100.00;101680.03;5089713;28;20036;-71
2023/10/09 09:36:48;;;;;;;4.20;1.60;;;;;;;16.08;100.00;101671.78;5100945;28;20127;-71
2023/10/09 09:39:19;;;;;;;2.50;1.20;;;;;;;16.35;100.00;101748.13;5109485;28;20507;-70
2023/10/09 09:41:45;;;;;;;4.45;1.50;;;;;;;16.19;100.00;101698.88;5110525;28;20066;-74
2023/10/09 09:44:17;;;;;;;3.97;1.40;;;;;;;16.17;100.00;101664.72;5111447;28;20028;-75
2023/10/09 09:46:44;;;;;;;5.95;1.63;;;;;;;16.49;100.00;101638.28;5111118;28;20020;-75
2023/10/09 09:49:21;;;;;;;8.73;2.03;;;;;;;17.99;100.00;101665.69;5111312;28;20564;-74
2023/10/09 09:51:47;;;;;;;3.33;1.50;;;;;;;17.43;100.00;101685.34;5109992;28;20118;-75
2023/10/09 09:54:16;;;;;;;2.30;1.50;;;;;;;16.62;100.00;101685.03;5111405;28;20508;-76
2023/10/09 09:56:52;;;;;;;3.38;1.30;;;;;;;16.94;100.00;101693.59;5110506;28;20028;-76
2023/10/09 09:59:27;;;;;;;6.80;1.80;;;;;;;17.13;100.00;101692.19;5111485;28;20034;-74
2023/10/09 10:02:06;;;;;;;4.22;1.45;;;;;;;17.28;100.00;101704.66;5111720;28;20024;-74
2023/10/09 10:04:35;;;;;;;4.82;1.75;;;;;;;16.57;100.00;101638.94;5109640;28;20422;-74
2023/10/09 10:07:04;;;;;;;3.45;1.27;;;;;;;16.13;100.00;101618.63;5110011;28;20057;-73
2023/10/09 10:09:38;;;;;;;5.38;1.70;;;;;;;17.29;100.00;101670.31;5111280;28;20023;-73
2023/10/09 10:12:10;;;;;;;5.50;1.65;;;;;;;16.81;100.00;101650.28;5110963;28;20024;-73
2023/10/09 10:15:07;;;;;;;4.35;1.63;;;;;;;17.61;100.00;101648.84;5111406;28;20031;-73
2023/10/09 10:17:59;;;;;;;4.63;1.58;;;;;;;17.12;100.00;101651.97;5111087;28;20043;-74
2023/10/09 10:20:25;;;;;;;4.25;1.70;;;;;;;18.44;100.00;101615.28;5110960;28;20112;-74
2023/10/09 10:23:19;;;;;;;3.38;1.73;;;;;;;18.68;100.00;101586.09;5110938;28;20058;-74
2023/10/09 10:26:00;;;;;;;3.28;1.60;;;;;;;18.41;100.00;101563.84;5109898;28;20027;-74
2023/10/09 10:28:38;;;;;;;2.80;1.65;;;;;;;18.50;100.00;101452.78;5111518;28;20038;-75
2023/10/09 10:31:09;;;;;;;4.68;2.33;;;;;;;18.69;100.00;101500.19;5118055;28;20041;-74
2023/10/09 10:33:56;;;;;;;4.50;1.73;;;;;;;18.84;100.00;101564.03;5124942;28;20079;-74
2023/10/09 10:36:26;;;;;;;3.20;1.67;;;;;;;18.16;100.00;101563.84;5111487;28;20028;-74
2023/10/09 10:41:54;;;;;;;4.13;1.58;;;;;;;19.15;100.00;101537.97;5115051;28;20027;-73
2023/10/09 10:44:41;;;;;;;6.20;2.70;;;;;;;19.78;100.00;101514.81;5114292;28;20027;-73
2023/10/09 10:47:27;;;;;;;5.35;1.70;;;;;;;19.05;100.00;101477.34;5114400;28;20039;-73
2023/10/09 10:49:58;;;;;;;5.10;1.60;;;;;;;18.08;100.00;101492.94;5114528;28;20028;-73
2023/10/09 10:52:36;;;;;;;6.07;1.70;;;;;;;19.26;100.00;101449.84;5112837;28;20027;-73
2023/10/09 10:55:18;;;;;;;3.20;1.25;;;;;;;19.29;100.00;101475.53;5115011;28;20495;-73
2023/10/09 10:57:53;;;;;;;5.28;1.83;;;;;;;18.41;100.00;101502.03;5114592;27;20036;-73
2023/10/09 11:03:19;;;;;;;3.70;1.70;;;;;;;19.22;100.00;101438.81;5114630;28;20138;-74
2023/10/09 11:05:50;;;;;;;3.08;1.80;;;;;;;20.14;100.00;101455.59;5114186;28;20031;-73
2023/10/09 11:08:22;;;;;;;3.25;1.73;;;;;;;19.05;100.00;101465.25;5114290;28;20432;-74
2023/10/09 11:10:50;;;;;;;;;;;;;;;20.04;100.00;101490.47;5114597;28;20024;-73
2023/10/09 11:13:36;;;;;;;3.10;1.30;;;;;;;19.97;100.00;101421.91;5114276;28;19934;-74
2023/10/09 11:16:28;;;;;;;4.70;1.48;;;;;;;19.26;100.00;101493.69;5114456;28;20023;-76
2023/10/09 11:18:57;;;;;;;3.95;1.50;;;;;;;19.54;100.00;101448.72;5114274;28;20020;-75
2023/10/09 11:21:30;;;;;;;5.82;1.58;;;;;;;20.38;100.00;101404.63;5113846;28;20096;-74
2023/10/09 11:24:24;;;;;;;3.13;1.55;;;;;;;19.67;100.00;101429.22;5114181;28;20031;-74
2023/10/09 11:26:53;;;;;;;4.72;1.67;;;;;;;20.24;100.00;101450.91;5113872;28;20406;-75
2023/10/09 11:32:23;;;;;;;3.80;1.60;;;;;;;19.06;100.00;101471.25;5113909;28;20141;-74
2023/10/09 11:34:53;;;;;;;3.53;1.80;;;;;;;18.73;100.00;101477.72;5114501;28;20027;-75
2023/10/09 11:40:00;;;;;;;3.10;1.25;;;;;;;19.32;100.00;101370.47;5114067;27;20122;-74
2023/10/09 11:42:36;;;;;;;5.78;1.65;;;;;;;19.92;100.00;101366.22;5112860;28;20043;-73
2023/10/09 11:45:24;;;;;;;5.63;2.00;;;;;;;20.23;100.00;101419.03;5112528;28;20035;-74
2023/10/09 11:47:57;;;;;;;4.35;1.65;;;;;;;20.57;100.00;101408.88;5112775;28;20080;-74
2023/10/09 11:55:52;;;;;;;5.50;1.65;;;;;;;20.90;100.00;101390.91;5114157;28;20055;-75
2023/10/09 11:58:24;;;;;;;4.25;1.77;;;;;;;20.80;100.00;101340.53;5113314;28;20031;-75
2023/10/09 12:01:04;;;;;;;4.90;1.63;;;;;;;20.77;100.00;101378.66;5112127;28;20114;-74
2023/10/09 12:03:31;;;;;;;6.53;1.70;;;;;;;20.43;100.00;101312.19;5113191;28;20043;-74
2023/10/09 12:06:05;;;;;;;7.70;1.90;;;;;;;20.99;100.00;101363.78;5113830;28;20031;-74
2023/10/09 12:08:33;;;;;;;5.13;1.50;;;;;;;20.49;100.00;101324.84;5113794;27;20023;-75
2023/10/09 12:11:02;;;;;;;3.97;2.00;;;;;;;20.34;100.00;101388.38;5112497;28;20023;-73
2023/10/09 12:13:28;;;;;;;3.47;1.70;;;;;;;20.75;100.00;101365.81;5113362;28;20028;-74
2023/10/09 12:15:54;;;;;;;3.03;1.65;;;;;;;21.26;100.00;101342.59;5111862;28;20031;-74
2023/10/09 12:18:21;;;;;;;4.65;1.70;;;;;;;20.37;100.00;101317.66;5112494;28;20036;-74
2023/10/09 12:21:02;;;;;;;4.32;1.65;;;;;;;21.25;100.00;101334.91;5111952;28;20054;-73
2023/10/09 12:23:27;;;;;;;8.18;1.77;;;;;;;20.40;100.00;101302.84;5113102;28;20116;-75
2023/10/09 12:25:56;;;;;;;4.45;1.63;;;;;;;20.52;100.00;101297.09;5112908;28;20066;-73
2023/10/09 12:28:22;;;;;;;3.58;1.67;;;;;;;20.43;100.00;101327.69;5113007;28;20035;-73
2023/10/09 12:30:51;;;;;;;3.47;1.58;;;;;;;20.34;100.00;101352.22;5112723;28;20089;-72
2023/10/09 12:33:27;;;;;;;3.78;1.67;;;;;;;20.70;100.00;101293.63;5112540;28;20478;-75
2023/10/09 12:35:59;;;;;;;7.97;1.88;;;;;;;20.88;100.00;101284.13;5112658;28;20039;-74
2023/10/09 12:38:31;;;;;;;7.65;1.73;;;;;;;20.60;100.00;101326.00;5112472;28;20023;-74
2023/10/09 12:41:08;;;;;;;6.72;1.92;;;;;;;20.77;100.00;101321.75;5112859;28;20032;-73
2023/10/09 12:43:37;;;;;;;5.70;2.10;;;;;;;20.90;100.00;101321.09;5112716;28;20409;-74
2023/10/09 12:46:07;;;;;;;6.20;1.52;;;;;;;21.87;100.00;101290.28;5111270;28;20063;-73
2023/10/09 12:48:33;;;;;;;5.45;1.80;;;;;;;20.94;100.00;101285.56;5112706;28;20028;-74
2023/10/09 12:51:05;;;;;;;5.85;1.77;;;;;;;22.05;100.00;101263.34;5112051;28;20019;-73
2023/10/09 12:53:32;;;;;;;4.53;1.80;;;;;;;21.27;100.00;101207.09;5112373;28;20088;-73
2023/10/09 12:55:58;;;;;;;5.07;1.88;;;;;;;21.11;100.00;101239.03;5110740;28;20478;-72
2023/10/09 12:58:26;;;;;;;5.35;2.00;;;;;;;21.23;100.00;101256.53;5111738;28;20064;-73
2023/10/09 13:00:52;;;;;;;4.40;1.77;;;;;;;20.68;100.00;101305.78;5112044;28;20019;-74
2023/10/09 13:03:18;;;;;;;7.00;1.85;;;;;;;20.86;100.00;101293.72;5110267;28;20051;-73
2023/10/09 13:05:58;;;;;;;10.30;2.00;;;;;;;20.63;100.00;101312.94;5111429;28;20481;-73
2023/10/09 13:08:31;;;;;;;10.52;1.80;;;;;;;21.23;100.00;101285.84;5111973;28;20031;-73
2023/10/09 13:11:00;;;;;;;5.25;1.88;;;;;;;20.19;100.00;101254.78;5112107;28;20043;-74
2023/10/09 13:13:46;;;;;;;5.10;1.88;;;;;;;21.17;100.00;101262.00;5110420;28;20486;-74
2023/10/09 13:16:27;;;;;;;6.25;1.70;;;;;;;21.41;100.00;101248.63;5110290;28;20038;-73
2023/10/09 13:18:54;;;;;;;5.25;1.75;;;;;;;21.30;100.00;101265.63;5112175;28;20059;-73
2023/10/09 13:21:21;;;;;;;5.45;1.83;;;;;;;21.55;100.00;101230.63;5111671;28;20027;-74
2023/10/09 13:23:49;;;;;;;5.35;1.75;;;;;;;21.68;100.00;101229.97;5112037;28;20063;-73
2023/10/09 13:26:18;;;;;;;4.55;1.88;;;;;;;21.14;100.00;101197.47;5111916;28;20039;-72
2023/10/09 13:28:51;;;;;;;5.50;1.60;;;;;;;20.78;100.00;101145.06;5111964;28;20031;-75
2023/10/09 13:31:20;;;;;;;3.90;1.52;;;;;;;20.50;100.00;101247.22;5110745;28;20122;-73
2023/10/09 13:33:47;;;;;;;4.55;1.50;;;;;;;20.90;100.00;101256.44;5111457;28;20080;-74
2023/10/09 13:36:17;;;;;;;3.42;1.60;;;;;;;21.15;100.00;101245.75;5110388;28;20508;-74
2023/10/09 13:38:43;;;;;;;4.10;1.60;;;;;;;20.63;100.00;101250.91;5111749;28;20031;-74
2023/10/09 13:41:12;;;;;;;4.57;1.63;;;;;;;20.04;100.00;101198.66;5110911;28;20023;-74
2023/10/09 13:43:42;;;;;;;3.42;1.73;;;;;;;20.50;100.00;101192.13;5111004;28;20035;-76
2023/10/09 13:46:12;;;;;;;4.97;1.75;;;;;;;21.11;100.00;101187.31;5111938;28;20027;-74
2023/10/09 13:48:45;;;;;;;5.18;1.73;;;;;;;21.07;100.00;101194.41;5111099;28;20031;-72
2023/10/09 13:51:17;;;;;;;6.22;1.60;;;;;;;21.27;100.00;101165.72;5111166;28;20493;-72
2023/10/09 13:53:45;;;;;;;4.60;1.77;;;;;;;20.12;100.00;101141.47;5109596;28;20083;-73
2023/10/09 13:56:27;;;;;;;3.25;1.70;;;;;;;20.26;100.00;101235.50;5109840;28;20042;-74
2023/10/09 13:58:53;;;;;;;4.25;1.70;;;;;;;20.40;100.00;101206.41;5107819;28;20039;-73
2023/10/09 14:01:28;;;;;;;9.13;2.40;;;;;;;20.63;100.00;101231.97;5110160;28;20038;-73
2023/10/09 14:03:58;;;;;;;4.80;2.17;;;;;;;20.87;100.00;101204.03;5110032;28;20079;-73
2023/10/09 14:06:30;;;;;;;3.65;1.63;;;;;;;20.87;100.00;101152.34;5111494;28;20027;-75
2023/10/09 14:08:57;;;;;;;3.35;1.88;;;;;;;20.32;100.00;101162.03;5111368;28;20074;-73
2023/10/09 14:11:24;;;;;;;3.05;1.58;;;;;;;21.03;100.00;101148.06;5110201;28;20126;-73
2023/10/09 14:13:51;;;;;;;6.53;2.05;;;;;;;23.75;100.00;101049.84;5110376;28;20405;-75